AAL1145 KMIA-SKCG
Flight info
| Callsign | AAL1145 |
|---|---|
| Flight time | 2h 20m |
| Altitude | 31000 |
| Route | GWAVA2 URSUS UP406 UBSUX UBSUX2A |
| Aircraft | B738/M-SDE2E3FGHIRWXY/LB1 |
Departure
| Time | 2026-04-26 12:17 |
|---|---|
| Airport | Miami International Airport (KMIA) |
Arrival
| Time | 2026-04-26 14:38 |
|---|---|
| Airport | Rafael Nuñez International Airport (SKCG) |
| Time | Latitude | Longitude | Altitude | Speed | Heading |
|---|---|---|---|---|---|
| 2026-04-26 11:47 | 25.79836 | -80.28165 | 13 ft | 0 kts | 181° |
| 2026-04-26 11:47 | 25.79831 | -80.28165 | 15 ft | 0 kts | 178° |
| 2026-04-26 12:09 | 25.79856 | -80.28166 | 13 ft | 4 kts | 178° |
| 2026-04-26 12:09 | 25.79878 | -80.28166 | 14 ft | 4 kts | 201° |
| 2026-04-26 12:09 | 25.79894 | -80.28149 | 13 ft | 4 kts | 259° |
| 2026-04-26 12:10 | 25.79896 | -80.28120 | 13 ft | 3 kts | 268° |
| 2026-04-26 12:10 | 25.79897 | -80.28096 | 13 ft | 1 kts | 268° |
| 2026-04-26 12:12 | 25.79897 | -80.28098 | 13 ft | 1 kts | 268° |
| 2026-04-26 12:12 | 25.79900 | -80.28124 | 13 ft | 7 kts | 296° |
| 2026-04-26 12:12 | 25.79949 | -80.28143 | 13 ft | 8 kts | 355° |
| 2026-04-26 12:12 | 25.79989 | -80.28147 | 13 ft | 9 kts | 349° |
| 2026-04-26 12:13 | 25.80039 | -80.28222 | 14 ft | 12 kts | 270° |
| 2026-04-26 12:13 | 25.80035 | -80.28324 | 14 ft | 15 kts | 267° |
| 2026-04-26 12:13 | 25.80030 | -80.28455 | 14 ft | 19 kts | 268° |
| 2026-04-26 12:13 | 25.80025 | -80.28601 | 18 ft | 19 kts | 267° |
| 2026-04-26 12:14 | 25.80020 | -80.28747 | 22 ft | 19 kts | 267° |
| 2026-04-26 12:14 | 25.80012 | -80.28908 | 21 ft | 23 kts | 267° |
| 2026-04-26 12:14 | 25.80004 | -80.29084 | 20 ft | 23 kts | 267° |
| 2026-04-26 12:14 | 25.79997 | -80.29255 | 20 ft | 22 kts | 267° |
| 2026-04-26 12:15 | 25.79990 | -80.29423 | 14 ft | 22 kts | 266° |
| 2026-04-26 12:15 | 25.79983 | -80.29590 | 13 ft | 21 kts | 268° |
| 2026-04-26 12:15 | 25.79977 | -80.29751 | 13 ft | 21 kts | 267° |
| 2026-04-26 12:15 | 25.79970 | -80.29909 | 10 ft | 20 kts | 268° |
| 2026-04-26 12:16 | 25.80001 | -80.30056 | 11 ft | 19 kts | 287° |
| 2026-04-26 12:16 | 25.80052 | -80.30117 | 14 ft | 10 kts | 20° |
| 2026-04-26 12:16 | 25.80074 | -80.30069 | 12 ft | 1 kts | 85° |
| 2026-04-26 12:16 | 25.80086 | -80.29805 | 12 ft | 81 kts | 87° |
| 2026-04-26 12:17 | 25.80131 | -80.28843 | 37 ft | 163 kts | 85° |
| 2026-04-26 12:17 | 25.80206 | -80.27453 | 692 ft | 194 kts | 85° |
| 2026-04-26 12:17 | 25.80299 | -80.25938 | 1897 ft | 195 kts | 88° |
| 2026-04-26 12:17 | 25.79934 | -80.24397 | 2580 ft | 227 kts | 124° |
| 2026-04-26 12:18 | 25.78617 | -80.23318 | 3264 ft | 243 kts | 152° |
| 2026-04-26 12:18 | 25.77139 | -80.22301 | 3922 ft | 261 kts | 140° |
| 2026-04-26 12:18 | 25.75746 | -80.20965 | 4899 ft | 268 kts | 139° |
| 2026-04-26 12:18 | 25.74252 | -80.19728 | 6090 ft | 271 kts | 153° |
| 2026-04-26 12:19 | 25.72418 | -80.19262 | 7141 ft | 274 kts | 176° |
| 2026-04-26 12:19 | 25.70486 | -80.19139 | 8006 ft | 282 kts | 177° |
| 2026-04-26 12:19 | 25.68505 | -80.19042 | 8881 ft | 287 kts | 178° |
| 2026-04-26 12:19 | 25.66494 | -80.19043 | 9782 ft | 291 kts | 185° |
| 2026-04-26 12:20 | 25.64469 | -80.19322 | 10566 ft | 300 kts | 189° |
| 2026-04-26 12:20 | 25.62294 | -80.19559 | 10765 ft | 330 kts | 179° |
| 2026-04-26 12:20 | 25.59997 | -80.18845 | 10980 ft | 359 kts | 153° |
| 2026-04-26 12:20 | 25.57840 | -80.17352 | 11531 ft | 371 kts | 148° |
| 2026-04-26 12:21 | 25.55649 | -80.15794 | 12243 ft | 377 kts | 148° |
| 2026-04-26 12:21 | 25.53404 | -80.14229 | 12917 ft | 384 kts | 149° |
| 2026-04-26 12:21 | 25.51118 | -80.12670 | 13701 ft | 387 kts | 149° |
| 2026-04-26 12:21 | 25.48801 | -80.11116 | 14453 ft | 392 kts | 150° |
| 2026-04-26 12:22 | 25.46449 | -80.09554 | 15155 ft | 397 kts | 150° |
| 2026-04-26 12:22 | 25.44058 | -80.07979 | 15810 ft | 403 kts | 150° |
| 2026-04-26 12:22 | 25.41638 | -80.06383 | 16490 ft | 407 kts | 150° |
| 2026-04-26 12:22 | 25.39193 | -80.04775 | 17154 ft | 412 kts | 150° |
| 2026-04-26 12:23 | 25.36710 | -80.03144 | 17726 ft | 418 kts | 150° |
| 2026-04-26 12:23 | 25.34200 | -80.01495 | 18349 ft | 422 kts | 150° |
| 2026-04-26 12:23 | 25.31666 | -79.99832 | 18971 ft | 425 kts | 150° |
| 2026-04-26 12:23 | 25.29112 | -79.98153 | 19542 ft | 429 kts | 150° |
| 2026-04-26 12:24 | 25.26537 | -79.96460 | 20133 ft | 433 kts | 150° |
| 2026-04-26 12:24 | 25.23961 | -79.94712 | 20687 ft | 437 kts | 148° |
| 2026-04-26 12:24 | 25.21394 | -79.92892 | 21202 ft | 441 kts | 148° |
| 2026-04-26 12:25 | 25.16231 | -79.89180 | 22156 ft | 450 kts | 148° |
| 2026-04-26 12:25 | 25.13598 | -79.87294 | 22637 ft | 452 kts | 148° |
| 2026-04-26 12:25 | 25.10940 | -79.85403 | 23080 ft | 456 kts | 148° |
| 2026-04-26 12:25 | 25.08257 | -79.83499 | 23498 ft | 460 kts | 148° |
| 2026-04-26 12:26 | 25.05553 | -79.81585 | 23925 ft | 463 kts | 148° |
| 2026-04-26 12:26 | 25.02826 | -79.79656 | 24323 ft | 467 kts | 148° |
| 2026-04-26 12:26 | 25.00084 | -79.77719 | 24727 ft | 470 kts | 148° |
| 2026-04-26 12:26 | 24.97322 | -79.75768 | 25140 ft | 473 kts | 148° |
| 2026-04-26 12:27 | 24.94549 | -79.73810 | 25561 ft | 475 kts | 148° |
| 2026-04-26 12:27 | 24.91762 | -79.71843 | 25977 ft | 476 kts | 149° |
| 2026-04-26 12:27 | 24.88965 | -79.69870 | 26378 ft | 479 kts | 149° |
| 2026-04-26 12:27 | 24.86155 | -79.67889 | 26768 ft | 481 kts | 149° |
| 2026-04-26 12:28 | 24.83329 | -79.65897 | 27124 ft | 484 kts | 149° |
| 2026-04-26 12:28 | 24.80484 | -79.63894 | 27487 ft | 486 kts | 149° |
| 2026-04-26 12:28 | 24.77629 | -79.61885 | 27854 ft | 488 kts | 149° |
| 2026-04-26 12:28 | 24.74765 | -79.59870 | 28204 ft | 490 kts | 149° |
| 2026-04-26 12:29 | 24.71890 | -79.57848 | 28551 ft | 491 kts | 149° |
| 2026-04-26 12:29 | 24.69014 | -79.55826 | 29032 ft | 489 kts | 149° |
| 2026-04-26 12:29 | 24.63317 | -79.51821 | 30088 ft | 484 kts | 150° |
| 2026-04-26 12:30 | 24.60485 | -79.49832 | 30547 ft | 483 kts | 150° |
| 2026-04-26 12:30 | 24.57655 | -79.47848 | 30946 ft | 483 kts | 150° |
| 2026-04-26 12:30 | 24.54804 | -79.45850 | 30972 ft | 489 kts | 150° |
| 2026-04-26 12:31 | 24.46241 | -79.39849 | 30981 ft | 481 kts | 150° |
| 2026-04-26 12:31 | 24.40584 | -79.35892 | 31001 ft | 483 kts | 150° |
| 2026-04-26 12:32 | 24.34900 | -79.31921 | 31002 ft | 485 kts | 150° |
| 2026-04-26 12:33 | 24.26400 | -79.25938 | 30990 ft | 487 kts | 149° |
| 2026-04-26 12:33 | 24.20748 | -79.21860 | 30994 ft | 486 kts | 149° |
| 2026-04-26 12:34 | 24.15102 | -79.17794 | 30985 ft | 485 kts | 149° |
| 2026-04-26 12:34 | 24.09465 | -79.13751 | 30989 ft | 484 kts | 149° |
| 2026-04-26 12:35 | 24.03851 | -79.09732 | 30990 ft | 481 kts | 150° |
| 2026-04-26 12:35 | 23.98004 | -79.06357 | 30977 ft | 469 kts | 173° |
| 2026-04-26 12:36 | 23.91605 | -79.05279 | 31000 ft | 466 kts | 175° |
| 2026-04-26 12:36 | 23.85196 | -79.04067 | 30987 ft | 469 kts | 174° |
| 2026-04-26 12:37 | 23.78769 | -79.02787 | 30992 ft | 470 kts | 174° |
| 2026-04-26 12:37 | 23.72325 | -79.01501 | 30990 ft | 472 kts | 174° |
| 2026-04-26 12:38 | 23.65858 | -79.00220 | 30990 ft | 473 kts | 174° |
| 2026-04-26 12:38 | 23.59376 | -78.98941 | 30991 ft | 474 kts | 174° |
| 2026-04-26 12:39 | 23.52887 | -78.97661 | 30991 ft | 474 kts | 174° |
| 2026-04-26 12:39 | 23.46398 | -78.96382 | 30990 ft | 474 kts | 174° |
| 2026-04-26 12:40 | 23.39956 | -78.95113 | 30993 ft | 474 kts | 174° |
| 2026-04-26 12:40 | 23.33477 | -78.93838 | 30990 ft | 473 kts | 174° |
| 2026-04-26 12:41 | 23.27003 | -78.92567 | 30989 ft | 473 kts | 174° |
| 2026-04-26 12:41 | 23.21624 | -78.91511 | 30991 ft | 472 kts | 174° |
| 2026-04-26 12:42 | 23.15163 | -78.90243 | 30991 ft | 472 kts | 174° |
| 2026-04-26 12:42 | 23.08704 | -78.88975 | 30992 ft | 472 kts | 175° |
| 2026-04-26 12:43 | 23.02232 | -78.87707 | 30992 ft | 473 kts | 174° |
| 2026-04-26 12:43 | 22.95754 | -78.86439 | 30993 ft | 474 kts | 175° |
| 2026-04-26 12:44 | 22.89256 | -78.85168 | 30990 ft | 475 kts | 175° |
| 2026-04-26 12:44 | 22.82751 | -78.83895 | 30986 ft | 475 kts | 175° |
| 2026-04-26 12:45 | 22.76238 | -78.82623 | 30993 ft | 476 kts | 175° |
| 2026-04-26 12:45 | 22.69713 | -78.81350 | 30989 ft | 477 kts | 175° |
| 2026-04-26 12:46 | 22.63182 | -78.80077 | 30990 ft | 477 kts | 175° |
| 2026-04-26 12:46 | 22.56643 | -78.78803 | 30993 ft | 477 kts | 175° |
| 2026-04-26 12:47 | 22.50100 | -78.77533 | 30994 ft | 478 kts | 175° |
| 2026-04-26 12:47 | 22.43541 | -78.76258 | 30991 ft | 479 kts | 175° |
| 2026-04-26 12:48 | 22.36981 | -78.74987 | 30991 ft | 479 kts | 175° |
| 2026-04-26 12:48 | 22.30421 | -78.73716 | 30991 ft | 479 kts | 175° |
| 2026-04-26 12:49 | 22.23864 | -78.72448 | 30993 ft | 479 kts | 175° |
| 2026-04-26 12:49 | 22.17304 | -78.71178 | 30989 ft | 479 kts | 175° |
| 2026-04-26 12:50 | 22.10748 | -78.69909 | 30990 ft | 479 kts | 175° |
| 2026-04-26 12:50 | 22.04194 | -78.68642 | 30990 ft | 478 kts | 175° |
| 2026-04-26 12:51 | 21.97642 | -78.67378 | 30992 ft | 478 kts | 175° |
| 2026-04-26 12:51 | 21.91091 | -78.66116 | 30992 ft | 478 kts | 175° |
| 2026-04-26 12:52 | 21.84532 | -78.64853 | 30991 ft | 479 kts | 175° |
| 2026-04-26 12:52 | 21.77970 | -78.63591 | 30993 ft | 479 kts | 175° |
| 2026-04-26 12:53 | 21.71396 | -78.62329 | 30991 ft | 480 kts | 175° |
| 2026-04-26 12:53 | 21.64821 | -78.61066 | 30990 ft | 480 kts | 175° |
| 2026-04-26 12:54 | 21.58242 | -78.59803 | 30991 ft | 480 kts | 175° |
| 2026-04-26 12:54 | 21.51662 | -78.58542 | 30991 ft | 480 kts | 175° |
| 2026-04-26 12:55 | 21.45127 | -78.57290 | 30989 ft | 480 kts | 175° |
| 2026-04-26 12:55 | 21.38546 | -78.56030 | 30992 ft | 480 kts | 175° |
| 2026-04-26 12:56 | 21.31968 | -78.54773 | 30992 ft | 480 kts | 175° |
| 2026-04-26 12:56 | 21.25399 | -78.53520 | 30988 ft | 479 kts | 175° |
| 2026-04-26 12:57 | 21.18835 | -78.52268 | 30991 ft | 479 kts | 175° |
| 2026-04-26 12:57 | 21.12272 | -78.51015 | 30994 ft | 479 kts | 175° |
| 2026-04-26 12:58 | 21.02426 | -78.49142 | 30992 ft | 479 kts | 175° |
| 2026-04-26 12:58 | 20.95861 | -78.47893 | 30991 ft | 479 kts | 176° |
| 2026-04-26 12:59 | 20.89299 | -78.46646 | 30991 ft | 479 kts | 176° |
| 2026-04-26 12:59 | 20.82740 | -78.45400 | 30989 ft | 479 kts | 176° |
| 2026-04-26 13:00 | 20.76178 | -78.44154 | 30992 ft | 479 kts | 176° |
| 2026-04-26 13:00 | 20.69618 | -78.42911 | 30983 ft | 479 kts | 176° |
| 2026-04-26 13:01 | 20.63051 | -78.41668 | 30979 ft | 479 kts | 176° |
| 2026-04-26 13:01 | 20.56481 | -78.40426 | 30983 ft | 480 kts | 176° |
| 2026-04-26 13:02 | 20.49914 | -78.39184 | 30979 ft | 479 kts | 176° |
| 2026-04-26 13:02 | 20.43396 | -78.37952 | 30983 ft | 479 kts | 176° |
| 2026-04-26 13:03 | 20.36839 | -78.36715 | 30978 ft | 478 kts | 176° |
| 2026-04-26 13:03 | 20.30288 | -78.35480 | 30981 ft | 478 kts | 176° |
| 2026-04-26 13:04 | 20.23744 | -78.34247 | 30974 ft | 478 kts | 176° |
| 2026-04-26 13:04 | 20.17199 | -78.33015 | 30973 ft | 478 kts | 176° |
| 2026-04-26 13:05 | 20.10654 | -78.31784 | 30969 ft | 478 kts | 176° |
| 2026-04-26 13:05 | 20.04109 | -78.30554 | 30974 ft | 478 kts | 176° |
| 2026-04-26 13:06 | 19.97564 | -78.29325 | 30972 ft | 478 kts | 176° |
| 2026-04-26 13:06 | 19.91037 | -78.27925 | 30965 ft | 479 kts | 173° |
| 2026-04-26 13:07 | 19.84525 | -78.26374 | 30965 ft | 479 kts | 173° |
| 2026-04-26 13:07 | 19.78017 | -78.24834 | 30962 ft | 479 kts | 173° |
| 2026-04-26 13:08 | 19.71498 | -78.23320 | 30965 ft | 479 kts | 174° |
| 2026-04-26 13:08 | 19.64989 | -78.21825 | 30964 ft | 479 kts | 174° |
| 2026-04-26 13:09 | 19.58479 | -78.20334 | 30955 ft | 479 kts | 174° |
| 2026-04-26 13:09 | 19.51964 | -78.18841 | 30954 ft | 479 kts | 174° |
| 2026-04-26 13:10 | 19.45458 | -78.17349 | 30953 ft | 478 kts | 173° |
| 2026-04-26 13:10 | 19.38959 | -78.15860 | 30955 ft | 478 kts | 174° |
| 2026-04-26 13:11 | 19.32467 | -78.14378 | 30954 ft | 477 kts | 174° |
| 2026-04-26 13:11 | 19.25986 | -78.12895 | 30954 ft | 476 kts | 174° |
| 2026-04-26 13:12 | 19.19558 | -78.11425 | 30951 ft | 476 kts | 174° |
| 2026-04-26 13:12 | 19.13092 | -78.09949 | 30943 ft | 475 kts | 174° |
| 2026-04-26 13:13 | 19.06644 | -78.08478 | 30948 ft | 473 kts | 174° |
| 2026-04-26 13:13 | 19.00212 | -78.07012 | 30941 ft | 472 kts | 174° |
| 2026-04-26 13:14 | 18.93797 | -78.05549 | 30966 ft | 471 kts | 174° |
| 2026-04-26 13:14 | 18.87398 | -78.04095 | 30963 ft | 470 kts | 174° |
| 2026-04-26 13:15 | 18.81014 | -78.02644 | 30964 ft | 469 kts | 174° |
| 2026-04-26 13:15 | 18.75717 | -78.01441 | 30962 ft | 468 kts | 174° |
| 2026-04-26 13:16 | 18.68279 | -77.99754 | 30963 ft | 467 kts | 174° |
| 2026-04-26 13:16 | 18.61931 | -77.98313 | 30963 ft | 466 kts | 174° |
| 2026-04-26 13:17 | 18.52429 | -77.96159 | 30963 ft | 465 kts | 174° |
| 2026-04-26 13:18 | 18.42939 | -77.94013 | 30960 ft | 465 kts | 174° |
| 2026-04-26 13:19 | 18.33495 | -77.91871 | 30963 ft | 465 kts | 174° |
| 2026-04-26 13:19 | 18.27174 | -77.90449 | 30967 ft | 464 kts | 174° |
| 2026-04-26 13:20 | 18.20868 | -77.89026 | 30947 ft | 463 kts | 174° |
| 2026-04-26 13:20 | 18.14577 | -77.87617 | 30967 ft | 462 kts | 174° |
| 2026-04-26 13:21 | 18.08293 | -77.86194 | 30965 ft | 462 kts | 174° |
| 2026-04-26 13:21 | 18.02008 | -77.84776 | 30971 ft | 462 kts | 174° |
| 2026-04-26 13:22 | 17.95713 | -77.83361 | 30965 ft | 463 kts | 174° |
| 2026-04-26 13:22 | 17.89403 | -77.81941 | 30963 ft | 464 kts | 174° |
| 2026-04-26 13:23 | 17.83083 | -77.80522 | 30962 ft | 465 kts | 174° |
| 2026-04-26 13:23 | 17.76761 | -77.79102 | 30962 ft | 465 kts | 174° |
| 2026-04-26 13:24 | 17.70438 | -77.77682 | 30966 ft | 465 kts | 174° |
| 2026-04-26 13:24 | 17.64116 | -77.76264 | 30960 ft | 464 kts | 174° |
| 2026-04-26 13:25 | 17.57802 | -77.74848 | 30963 ft | 464 kts | 174° |
| 2026-04-26 13:25 | 17.51489 | -77.73435 | 30962 ft | 463 kts | 174° |
| 2026-04-26 13:26 | 17.45185 | -77.72024 | 30964 ft | 463 kts | 174° |
| 2026-04-26 13:26 | 17.38889 | -77.70616 | 30962 ft | 462 kts | 174° |
| 2026-04-26 13:27 | 17.32602 | -77.69211 | 30965 ft | 462 kts | 174° |
| 2026-04-26 13:27 | 17.26323 | -77.67810 | 30963 ft | 461 kts | 174° |
| 2026-04-26 13:28 | 17.24371 | -77.67374 | 30964 ft | 461 kts | 174° |
| 2026-04-26 13:28 | 17.22424 | -77.66940 | 30962 ft | 461 kts | 174° |
| 2026-04-26 13:29 | 17.15140 | -77.65315 | 30964 ft | 460 kts | 174° |
| 2026-04-26 13:29 | 17.09894 | -77.64147 | 30964 ft | 460 kts | 174° |
| 2026-04-26 13:30 | 17.03633 | -77.62752 | 30962 ft | 460 kts | 174° |
| 2026-04-26 13:30 | 16.97370 | -77.61359 | 30963 ft | 460 kts | 173° |
| 2026-04-26 13:31 | 16.91115 | -77.59968 | 30962 ft | 460 kts | 173° |
| 2026-04-26 13:31 | 16.84859 | -77.58577 | 30963 ft | 460 kts | 173° |
| 2026-04-26 13:32 | 16.78601 | -77.57186 | 30965 ft | 460 kts | 173° |
| 2026-04-26 13:32 | 16.72342 | -77.55797 | 30963 ft | 460 kts | 173° |
| 2026-04-26 13:33 | 16.66086 | -77.54409 | 30962 ft | 460 kts | 173° |
| 2026-04-26 13:33 | 16.59832 | -77.53022 | 30963 ft | 459 kts | 173° |
| 2026-04-26 13:34 | 16.53626 | -77.51646 | 30963 ft | 459 kts | 173° |
| 2026-04-26 13:34 | 16.47387 | -77.50266 | 30963 ft | 459 kts | 173° |
| 2026-04-26 13:35 | 16.41140 | -77.48886 | 30962 ft | 459 kts | 173° |
| 2026-04-26 13:35 | 16.34892 | -77.47505 | 30964 ft | 459 kts | 173° |
| 2026-04-26 13:36 | 16.28647 | -77.46123 | 30965 ft | 459 kts | 173° |
| 2026-04-26 13:36 | 16.22393 | -77.44742 | 30964 ft | 459 kts | 173° |
| 2026-04-26 13:37 | 16.16136 | -77.43361 | 30963 ft | 460 kts | 173° |
| 2026-04-26 13:37 | 16.09879 | -77.41980 | 30963 ft | 460 kts | 173° |
| 2026-04-26 13:38 | 16.03616 | -77.40601 | 30965 ft | 460 kts | 173° |
| 2026-04-26 13:38 | 15.97350 | -77.39221 | 30962 ft | 460 kts | 173° |
| 2026-04-26 13:39 | 15.91078 | -77.37934 | 30963 ft | 459 kts | 174° |
| 2026-04-26 13:39 | 15.84809 | -77.36707 | 30964 ft | 458 kts | 174° |
| 2026-04-26 13:40 | 15.78546 | -77.35475 | 30962 ft | 458 kts | 174° |
| 2026-04-26 13:40 | 15.72288 | -77.34232 | 30965 ft | 458 kts | 174° |
| 2026-04-26 13:41 | 15.66037 | -77.32990 | 30961 ft | 457 kts | 174° |
| 2026-04-26 13:41 | 15.59790 | -77.31747 | 30965 ft | 457 kts | 174° |
| 2026-04-26 13:42 | 15.53545 | -77.30504 | 30962 ft | 457 kts | 174° |
| 2026-04-26 13:42 | 15.47342 | -77.29272 | 30962 ft | 457 kts | 174° |
| 2026-04-26 13:43 | 15.41095 | -77.28031 | 30963 ft | 457 kts | 174° |
| 2026-04-26 13:43 | 15.34847 | -77.26791 | 30963 ft | 457 kts | 174° |
| 2026-04-26 13:44 | 15.28595 | -77.25551 | 30963 ft | 457 kts | 174° |
| 2026-04-26 13:44 | 15.22349 | -77.24313 | 30963 ft | 457 kts | 173° |
| 2026-04-26 13:45 | 15.16105 | -77.23077 | 30964 ft | 457 kts | 173° |
| 2026-04-26 13:45 | 15.09860 | -77.21841 | 30962 ft | 457 kts | 173° |
| 2026-04-26 13:46 | 15.03616 | -77.20604 | 30963 ft | 457 kts | 173° |
| 2026-04-26 13:46 | 14.97368 | -77.19365 | 30961 ft | 457 kts | 173° |
| 2026-04-26 13:47 | 14.91121 | -77.18106 | 30963 ft | 457 kts | 173° |
| 2026-04-26 13:47 | 14.84878 | -77.16844 | 30964 ft | 457 kts | 173° |
| 2026-04-26 13:48 | 14.78634 | -77.15585 | 30962 ft | 457 kts | 173° |
| 2026-04-26 13:48 | 14.72395 | -77.14329 | 30962 ft | 457 kts | 173° |
| 2026-04-26 13:49 | 14.66157 | -77.13072 | 30964 ft | 457 kts | 173° |
| 2026-04-26 13:49 | 14.59918 | -77.11818 | 30963 ft | 457 kts | 173° |
| 2026-04-26 13:50 | 14.53679 | -77.10566 | 30965 ft | 457 kts | 173° |
| 2026-04-26 13:50 | 14.47439 | -77.09314 | 30961 ft | 457 kts | 173° |
| 2026-04-26 13:51 | 14.41199 | -77.08059 | 30963 ft | 457 kts | 173° |
| 2026-04-26 13:51 | 14.34960 | -77.06808 | 30963 ft | 457 kts | 173° |
| 2026-04-26 13:52 | 14.28725 | -77.05558 | 30964 ft | 457 kts | 173° |
| 2026-04-26 13:52 | 14.22488 | -77.04309 | 30961 ft | 456 kts | 173° |
| 2026-04-26 13:53 | 14.16257 | -77.03061 | 30965 ft | 456 kts | 173° |
| 2026-04-26 13:53 | 14.10025 | -77.01814 | 30963 ft | 456 kts | 173° |
| 2026-04-26 13:54 | 14.03835 | -77.00576 | 30962 ft | 456 kts | 173° |
| 2026-04-26 13:54 | 13.97608 | -76.99332 | 30964 ft | 456 kts | 172° |
| 2026-04-26 13:55 | 13.89275 | -76.97671 | 30962 ft | 456 kts | 172° |
| 2026-04-26 13:56 | 13.78933 | -76.95602 | 30963 ft | 455 kts | 172° |
| 2026-04-26 13:56 | 13.72715 | -76.94360 | 30960 ft | 455 kts | 172° |
| 2026-04-26 13:57 | 13.66496 | -76.93120 | 30963 ft | 455 kts | 172° |
| 2026-04-26 13:57 | 13.60277 | -76.91880 | 30965 ft | 455 kts | 172° |
| 2026-04-26 13:58 | 13.54057 | -76.90642 | 30962 ft | 455 kts | 172° |
| 2026-04-26 13:58 | 13.47846 | -76.89407 | 30966 ft | 455 kts | 172° |
| 2026-04-26 13:59 | 13.41634 | -76.88170 | 30956 ft | 454 kts | 172° |
| 2026-04-26 13:59 | 13.35430 | -76.86937 | 30954 ft | 454 kts | 172° |
| 2026-04-26 14:00 | 13.23035 | -76.84474 | 30956 ft | 453 kts | 172° |
| 2026-04-26 14:01 | 13.16837 | -76.83244 | 30952 ft | 454 kts | 172° |
| 2026-04-26 14:01 | 13.10683 | -76.82022 | 30954 ft | 453 kts | 172° |
| 2026-04-26 14:02 | 13.04491 | -76.80794 | 30953 ft | 453 kts | 172° |
| 2026-04-26 14:02 | 12.98302 | -76.79567 | 30955 ft | 453 kts | 172° |
| 2026-04-26 14:03 | 12.92109 | -76.78341 | 30954 ft | 453 kts | 172° |
| 2026-04-26 14:03 | 12.85916 | -76.77114 | 30942 ft | 453 kts | 172° |
| 2026-04-26 14:04 | 12.79723 | -76.75887 | 30947 ft | 453 kts | 172° |
| 2026-04-26 14:04 | 12.73539 | -76.74663 | 30946 ft | 453 kts | 172° |
| 2026-04-26 14:05 | 12.67371 | -76.73326 | 30933 ft | 456 kts | 164° |
| 2026-04-26 14:05 | 12.61548 | -76.70685 | 30946 ft | 459 kts | 157° |
| 2026-04-26 14:06 | 12.55800 | -76.67851 | 30944 ft | 458 kts | 158° |
| 2026-04-26 14:06 | 12.50032 | -76.65084 | 30944 ft | 458 kts | 158° |
| 2026-04-26 14:07 | 12.44245 | -76.62375 | 30940 ft | 457 kts | 159° |
| 2026-04-26 14:07 | 12.38453 | -76.59687 | 30945 ft | 457 kts | 159° |
| 2026-04-26 14:08 | 12.32657 | -76.57000 | 30947 ft | 457 kts | 159° |
| 2026-04-26 14:08 | 12.26862 | -76.54311 | 30946 ft | 457 kts | 159° |
| 2026-04-26 14:09 | 12.21068 | -76.51623 | 30941 ft | 458 kts | 159° |
| 2026-04-26 14:09 | 12.15271 | -76.48934 | 30948 ft | 457 kts | 159° |
| 2026-04-26 14:10 | 12.09481 | -76.46248 | 30940 ft | 457 kts | 159° |
| 2026-04-26 14:10 | 12.03695 | -76.43566 | 30947 ft | 456 kts | 159° |
| 2026-04-26 14:11 | 11.95063 | -76.39566 | 30948 ft | 456 kts | 159° |
| 2026-04-26 14:11 | 11.89388 | -76.36939 | 30593 ft | 440 kts | 159° |
| 2026-04-26 14:12 | 11.86634 | -76.35663 | 30235 ft | 431 kts | 159° |
| 2026-04-26 14:12 | 11.83918 | -76.34406 | 29823 ft | 427 kts | 159° |
| 2026-04-26 14:12 | 11.81231 | -76.33164 | 29383 ft | 421 kts | 158° |
| 2026-04-26 14:12 | 11.78565 | -76.31933 | 28962 ft | 421 kts | 158° |
| 2026-04-26 14:13 | 11.73175 | -76.29446 | 28052 ft | 424 kts | 158° |
| 2026-04-26 14:13 | 11.70503 | -76.28211 | 27597 ft | 419 kts | 158° |
| 2026-04-26 14:13 | 11.67861 | -76.26989 | 27152 ft | 415 kts | 158° |
| 2026-04-26 14:14 | 11.65246 | -76.25780 | 26710 ft | 410 kts | 157° |
| 2026-04-26 14:14 | 11.62660 | -76.24586 | 26280 ft | 406 kts | 157° |
| 2026-04-26 14:14 | 11.60098 | -76.23403 | 25858 ft | 403 kts | 157° |
| 2026-04-26 14:14 | 11.57556 | -76.22229 | 25424 ft | 399 kts | 157° |
| 2026-04-26 14:15 | 11.55029 | -76.21064 | 25001 ft | 399 kts | 157° |
| 2026-04-26 14:15 | 11.52495 | -76.19895 | 24573 ft | 400 kts | 156° |
| 2026-04-26 14:15 | 11.49964 | -76.18728 | 24138 ft | 398 kts | 156° |
| 2026-04-26 14:15 | 11.47451 | -76.17570 | 23714 ft | 394 kts | 156° |
| 2026-04-26 14:16 | 11.44972 | -76.16426 | 23270 ft | 389 kts | 156° |
| 2026-04-26 14:16 | 11.42513 | -76.15292 | 22860 ft | 385 kts | 156° |
| 2026-04-26 14:16 | 11.40902 | -76.14549 | 22582 ft | 383 kts | 156° |
| 2026-04-26 14:16 | 11.38484 | -76.13430 | 22171 ft | 381 kts | 156° |
| 2026-04-26 14:17 | 11.36073 | -76.12316 | 21773 ft | 380 kts | 156° |
| 2026-04-26 14:17 | 11.33666 | -76.11216 | 21350 ft | 378 kts | 157° |
| 2026-04-26 14:17 | 11.31261 | -76.10149 | 20941 ft | 376 kts | 156° |
| 2026-04-26 14:17 | 11.28889 | -76.09040 | 20528 ft | 375 kts | 156° |
| 2026-04-26 14:18 | 11.26521 | -76.07929 | 20112 ft | 372 kts | 156° |
| 2026-04-26 14:18 | 11.24177 | -76.06840 | 19710 ft | 369 kts | 156° |
| 2026-04-26 14:18 | 11.21853 | -76.05777 | 19309 ft | 365 kts | 156° |
| 2026-04-26 14:18 | 11.19550 | -76.04718 | 18919 ft | 361 kts | 156° |
| 2026-04-26 14:19 | 11.17271 | -76.03668 | 18533 ft | 359 kts | 156° |
| 2026-04-26 14:19 | 11.15000 | -76.02622 | 18151 ft | 358 kts | 156° |
| 2026-04-26 14:19 | 11.12740 | -76.01581 | 17751 ft | 355 kts | 156° |
| 2026-04-26 14:19 | 11.10501 | -76.00552 | 17366 ft | 351 kts | 156° |
| 2026-04-26 14:20 | 11.08277 | -75.99529 | 16983 ft | 351 kts | 156° |
| 2026-04-26 14:20 | 11.06050 | -75.98505 | 16604 ft | 352 kts | 156° |
| 2026-04-26 14:20 | 11.03828 | -75.97484 | 16209 ft | 349 kts | 156° |
| 2026-04-26 14:20 | 11.01662 | -75.96488 | 15833 ft | 345 kts | 156° |
| 2026-04-26 14:21 | 10.99460 | -75.95476 | 15449 ft | 341 kts | 156° |
| 2026-04-26 14:21 | 10.97303 | -75.94484 | 15063 ft | 338 kts | 156° |
| 2026-04-26 14:21 | 10.95157 | -75.93498 | 14691 ft | 339 kts | 156° |
| 2026-04-26 14:21 | 10.93004 | -75.92510 | 14316 ft | 339 kts | 156° |
| 2026-04-26 14:22 | 10.90867 | -75.91528 | 13933 ft | 335 kts | 156° |
| 2026-04-26 14:22 | 10.88755 | -75.90558 | 13557 ft | 332 kts | 156° |
| 2026-04-26 14:22 | 10.86662 | -75.89597 | 13189 ft | 328 kts | 156° |
| 2026-04-26 14:22 | 10.84588 | -75.88646 | 12825 ft | 326 kts | 156° |
| 2026-04-26 14:23 | 10.82520 | -75.87696 | 12480 ft | 327 kts | 156° |
| 2026-04-26 14:23 | 10.80444 | -75.86745 | 12088 ft | 328 kts | 156° |
| 2026-04-26 14:23 | 10.78374 | -75.85796 | 11716 ft | 324 kts | 156° |
| 2026-04-26 14:23 | 10.76330 | -75.84858 | 11351 ft | 321 kts | 156° |
| 2026-04-26 14:24 | 10.74307 | -75.83930 | 11008 ft | 317 kts | 156° |
| 2026-04-26 14:24 | 10.72304 | -75.83011 | 10632 ft | 316 kts | 156° |
| 2026-04-26 14:24 | 10.70305 | -75.82094 | 10425 ft | 313 kts | 156° |
| 2026-04-26 14:24 | 10.68346 | -75.81195 | 10281 ft | 304 kts | 156° |
| 2026-04-26 14:25 | 10.66447 | -75.80325 | 10139 ft | 294 kts | 156° |
| 2026-04-26 14:25 | 10.64611 | -75.79483 | 10020 ft | 285 kts | 156° |
| 2026-04-26 14:25 | 10.62822 | -75.78663 | 9776 ft | 281 kts | 156° |
| 2026-04-26 14:25 | 10.61050 | -75.77851 | 9507 ft | 278 kts | 156° |
| 2026-04-26 14:26 | 10.59319 | -75.77058 | 9237 ft | 276 kts | 156° |
| 2026-04-26 14:26 | 10.57576 | -75.76259 | 8967 ft | 275 kts | 156° |
| 2026-04-26 14:26 | 10.55828 | -75.75459 | 8695 ft | 277 kts | 156° |
| 2026-04-26 14:26 | 10.54068 | -75.74653 | 8406 ft | 277 kts | 156° |
| 2026-04-26 14:27 | 10.52322 | -75.73850 | 8134 ft | 274 kts | 156° |
| 2026-04-26 14:27 | 10.50589 | -75.73057 | 7842 ft | 274 kts | 156° |
| 2026-04-26 14:27 | 10.48853 | -75.72263 | 7548 ft | 274 kts | 156° |
| 2026-04-26 14:27 | 10.47109 | -75.71465 | 7266 ft | 273 kts | 156° |
| 2026-04-26 14:28 | 10.45386 | -75.70676 | 7000 ft | 270 kts | 156° |
| 2026-04-26 14:28 | 10.43677 | -75.69894 | 6707 ft | 269 kts | 156° |
| 2026-04-26 14:28 | 10.41988 | -75.69122 | 6463 ft | 262 kts | 156° |
| 2026-04-26 14:28 | 10.40359 | -75.68377 | 6195 ft | 251 kts | 156° |
| 2026-04-26 14:29 | 10.38807 | -75.67667 | 5933 ft | 239 kts | 156° |
| 2026-04-26 14:29 | 10.37319 | -75.66985 | 5678 ft | 230 kts | 156° |
| 2026-04-26 14:29 | 10.35889 | -75.66330 | 5409 ft | 221 kts | 156° |
| 2026-04-26 14:29 | 10.34520 | -75.65705 | 5209 ft | 211 kts | 156° |
| 2026-04-26 14:30 | 10.33219 | -75.65097 | 5018 ft | 201 kts | 156° |
| 2026-04-26 14:30 | 10.31961 | -75.64526 | 4813 ft | 195 kts | 156° |
| 2026-04-26 14:30 | 10.30727 | -75.63964 | 4601 ft | 195 kts | 156° |
| 2026-04-26 14:30 | 10.29490 | -75.63400 | 4412 ft | 195 kts | 156° |
| 2026-04-26 14:31 | 10.28252 | -75.62839 | 4228 ft | 195 kts | 156° |
| 2026-04-26 14:31 | 10.27098 | -75.62136 | 4000 ft | 193 kts | 133° |
| 2026-04-26 14:31 | 10.26657 | -75.60924 | 3863 ft | 186 kts | 91° |
| 2026-04-26 14:31 | 10.26647 | -75.59635 | 3729 ft | 180 kts | 93° |
| 2026-04-26 14:32 | 10.26592 | -75.58404 | 3628 ft | 171 kts | 93° |
| 2026-04-26 14:32 | 10.26546 | -75.57253 | 3539 ft | 156 kts | 93° |
| 2026-04-26 14:32 | 10.26500 | -75.56168 | 3371 ft | 151 kts | 93° |
| 2026-04-26 14:32 | 10.26457 | -75.55115 | 3254 ft | 148 kts | 92° |
| 2026-04-26 14:33 | 10.26449 | -75.54071 | 3121 ft | 148 kts | 82° |
| 2026-04-26 14:33 | 10.26909 | -75.53154 | 3034 ft | 148 kts | 52° |
| 2026-04-26 14:33 | 10.27667 | -75.52424 | 2862 ft | 152 kts | 34° |
| 2026-04-26 14:33 | 10.28625 | -75.52052 | 2795 ft | 146 kts | 8° |
| 2026-04-26 14:34 | 10.29661 | -75.51936 | 2629 ft | 149 kts | 6° |
| 2026-04-26 14:34 | 10.30701 | -75.51861 | 2425 ft | 148 kts | 4° |
| 2026-04-26 14:34 | 10.31727 | -75.51811 | 2236 ft | 148 kts | 3° |
| 2026-04-26 14:34 | 10.32750 | -75.51765 | 2032 ft | 146 kts | 3° |
| 2026-04-26 14:35 | 10.33757 | -75.51723 | 1844 ft | 145 kts | 4° |
| 2026-04-26 14:35 | 10.34758 | -75.51681 | 1661 ft | 144 kts | 3° |
| 2026-04-26 14:35 | 10.35755 | -75.51640 | 1468 ft | 143 kts | 3° |
| 2026-04-26 14:35 | 10.36752 | -75.51603 | 1264 ft | 144 kts | 3° |
| 2026-04-26 14:36 | 10.37748 | -75.51549 | 1082 ft | 143 kts | 3° |
| 2026-04-26 14:36 | 10.38743 | -75.51512 | 893 ft | 143 kts | 3° |
| 2026-04-26 14:36 | 10.39730 | -75.51463 | 695 ft | 142 kts | 3° |
| 2026-04-26 14:36 | 10.40707 | -75.51437 | 508 ft | 139 kts | 2° |
| 2026-04-26 14:37 | 10.41663 | -75.51391 | 358 ft | 136 kts | 4° |
| 2026-04-26 14:37 | 10.42603 | -75.51357 | 202 ft | 134 kts | 3° |
| 2026-04-26 14:37 | 10.43494 | -75.51320 | 53 ft | 118 kts | 3° |
| 2026-04-26 14:37 | 10.44199 | -75.51291 | 50 ft | 81 kts | 2° |
| 2026-04-26 14:38 | 10.44576 | -75.51277 | 50 ft | 22 kts | 2° |
| 2026-04-26 14:38 | 10.44643 | -75.51306 | 50 ft | 10 kts | 295° |
| 2026-04-26 14:38 | 10.44642 | -75.51365 | 50 ft | 8 kts | 251° |
| 2026-04-26 14:38 | 10.44634 | -75.51401 | 50 ft | 8 kts | 270° |
| 2026-04-26 14:39 | 10.44649 | -75.51473 | 50 ft | 8 kts | 312° |
| 2026-04-26 14:39 | 10.44697 | -75.51495 | 50 ft | 8 kts | 0° |
| 2026-04-26 14:39 | 10.44723 | -75.51504 | 50 ft | 2 kts | 292° |
| 2026-04-26 14:39 | 10.44726 | -75.51522 | 50 ft | 3 kts | 275° |
| 2026-04-26 14:40 | 10.44727 | -75.51543 | 50 ft | 3 kts | 272° |
| 2026-04-26 14:40 | 10.44727 | -75.51546 | 50 ft | 0 kts | 272° |
| 2026-04-26 14:44 | 10.44727 | -75.51544 | 50 ft | 0 kts | 272° |
| 2026-04-26 14:50 | 10.44727 | -75.51543 | 50 ft | 0 kts | 272° |